Alex, Louisiana
Current Conditions -  °F | °C
As of 6:53 PM on Thursday 27 Nov 2014 (Local Time) from KAEX Reporting Station
Clear Clear  
Wind Chill:   Ceiling: Unl
Heat Index:   Visibility: 10mi
Dew Point:   Wind: 6mph
Humidity: 56%   Direction: 60°ENE
Pressure: 30.45"   Gusts: NA
Location:  31.2081°N, 92.3683°W
Report Text: KAEX 280053Z AUTO 06005KT 10SM CLR 08/00 A3045 RMK AO2 SLP316 T00830000
Loading
Personal Weather Stations






























Interactive Weather Map New forecast layout! Learn more

10-Day Weather Forecast

Advertisements
Track Severe Weather on mobile